createdAt,value
2023-01-29T00:02:24.517Z,7.32
2023-01-29T00:05:28.492Z,6.63
2023-01-29T00:08:34.078Z,6.25
2023-01-29T00:11:37.112Z,6.53
2023-01-29T00:14:39.877Z,7.43
2023-01-29T00:17:42.828Z,7.45
2023-01-29T00:20:46.582Z,6.50
2023-01-29T00:23:50.478Z,7.10
2023-01-29T00:26:53.282Z,6.87
2023-01-29T00:30:16.482Z,7.13
2023-01-29T00:33:20.127Z,6.82
2023-01-29T00:36:23.543Z,6.82
2023-01-29T00:39:31.377Z,6.65
2023-01-29T00:42:57.668Z,7.00
2023-01-29T00:46:03.970Z,6.37
2023-01-29T00:49:07.675Z,6.88
2023-01-29T00:52:25.846Z,6.22
2023-01-29T00:55:28.656Z,6.15
2023-01-29T00:58:34.521Z,6.20
2023-01-29T01:01:56.255Z,6.83
2023-01-29T01:05:07.907Z,6.22
2023-01-29T01:08:29.456Z,6.10
2023-01-29T01:11:33.864Z,6.20
2023-01-29T01:14:37.711Z,6.63
2023-01-29T01:17:40.481Z,6.57
2023-01-29T01:20:44.504Z,6.45
2023-01-29T01:23:52.165Z,6.63
2023-01-29T01:26:55.257Z,6.75
2023-01-29T01:29:58.156Z,6.73
2023-01-29T01:33:01.757Z,7.00
2023-01-29T01:36:11.462Z,6.38
2023-01-29T01:39:14.571Z,6.85
2023-01-29T01:42:17.522Z,6.63
2023-01-29T01:45:28.363Z,6.70
2023-01-29T01:48:31.203Z,6.70
2023-01-29T01:51:41.411Z,6.07
2023-01-29T01:54:44.701Z,6.65
2023-01-29T01:57:53.243Z,6.18
2023-01-29T02:00:57.193Z,6.97
2023-01-29T02:04:25.193Z,6.73
2023-01-29T02:07:46.699Z,6.63
2023-01-29T02:10:50.243Z,6.60
2023-01-29T02:13:53.860Z,6.65
2023-01-29T02:17:02.068Z,5.63
2023-01-29T02:20:24.573Z,6.37
2023-01-29T02:24:05.303Z,7.28
2023-01-29T02:27:12.535Z,5.85
2023-01-29T02:30:32.366Z,6.75
2023-01-29T02:34:05.368Z,6.97
2023-01-29T02:37:11.261Z,6.20
2023-01-29T02:40:30.366Z,6.18
2023-01-29T02:43:50.164Z,7.03
2023-01-29T02:46:59.179Z,6.25
2023-01-29T02:50:38.217Z,6.07
2023-01-29T02:54:13.558Z,5.90
2023-01-29T02:57:34.342Z,5.78
2023-01-29T03:00:42.808Z,6.43
2023-01-29T03:03:56.376Z,6.32
2023-01-29T03:07:04.266Z,6.40
2023-01-29T03:10:26.468Z,7.07
2023-01-29T03:13:49.671Z,6.22
2023-01-29T03:16:54.515Z,5.90
2023-01-29T03:19:58.526Z,6.22
2023-01-29T03:23:11.748Z,6.17
2023-01-29T03:26:37.002Z,6.07
2023-01-29T03:30:02.145Z,6.03
2023-01-29T03:33:26.614Z,6.20
2023-01-29T03:36:38.361Z,6.28
2023-01-29T03:39:42.038Z,5.93
2023-01-29T03:43:05.180Z,6.50
2023-01-29T03:46:19.046Z,6.40
2023-01-29T03:49:40.088Z,5.97
2023-01-29T03:53:10.436Z,5.88
2023-01-29T03:56:19.290Z,6.17
2023-01-29T03:59:35.798Z,6.10
2023-01-29T04:03:34.327Z,6.45
2023-01-29T04:06:43.773Z,5.43
2023-01-29T04:10:15.843Z,6.32
2023-01-29T04:13:20.486Z,5.80
2023-01-29T04:16:29.560Z,6.10
2023-01-29T04:19:51.182Z,6.15
2023-01-29T04:22:54.456Z,6.97
2023-01-29T04:26:24.091Z,5.95
2023-01-29T04:29:38.304Z,5.87
2023-01-29T04:33:03.435Z,7.10
2023-01-29T04:36:21.362Z,5.68
2023-01-29T04:39:37.620Z,6.50
2023-01-29T04:42:49.155Z,5.95
2023-01-29T04:46:31.753Z,5.77
2023-01-29T04:49:47.104Z,5.63
2023-01-29T04:53:17.977Z,6.45
2023-01-29T04:56:34.070Z,5.70
2023-01-29T04:59:45.539Z,6.30
2023-01-29T05:02:49.453Z,5.97
2023-01-29T05:05:54.237Z,5.90
2023-01-29T05:08:57.692Z,6.03
2023-01-29T05:12:02.791Z,5.88
2023-01-29T05:15:12.703Z,6.00
2023-01-29T05:18:16.675Z,6.30
2023-01-29T05:21:23.270Z,5.93
2023-01-29T05:24:27.005Z,5.82
2023-01-29T05:27:54.087Z,6.30
2023-01-29T05:30:57.736Z,5.63
2023-01-29T05:34:00.739Z,5.90
2023-01-29T05:37:03.728Z,6.10
2023-01-29T05:40:08.951Z,6.20
2023-01-29T05:43:29.966Z,6.20
2023-01-29T05:46:32.759Z,6.22
2023-01-29T05:49:37.876Z,5.87
2023-01-29T05:52:41.854Z,5.27
2023-01-29T05:55:46.066Z,5.72
2023-01-29T05:58:51.456Z,5.85
2023-01-29T06:01:54.265Z,6.00
2023-01-29T06:04:57.205Z,5.70
2023-01-29T06:07:59.925Z,5.67
2023-01-29T06:11:04.789Z,5.78
2023-01-29T06:14:07.618Z,5.55
2023-01-29T06:17:11.779Z,6.22
2023-01-29T06:20:15.347Z,6.13
2023-01-29T06:23:18.435Z,6.47
2023-01-29T06:26:21.292Z,6.60
2023-01-29T06:29:24.139Z,5.72
2023-01-29T06:32:28.055Z,6.03
2023-01-29T06:35:30.910Z,6.10
2023-01-29T06:38:34.164Z,6.10
2023-01-29T06:41:37.076Z,6.13
2023-01-29T06:44:39.935Z,5.55
2023-01-29T06:47:42.719Z,5.55
2023-01-29T06:50:45.736Z,6.30
2023-01-29T06:53:48.476Z,5.80
2023-01-29T06:56:52.202Z,6.22
2023-01-29T06:59:55.026Z,5.20
2023-01-29T07:02:57.846Z,5.68
2023-01-29T07:06:00.659Z,6.00
2023-01-29T07:09:04.915Z,5.70
2023-01-29T07:12:08.700Z,5.90
2023-01-29T07:15:12.894Z,5.82
2023-01-29T07:18:15.852Z,6.28
2023-01-29T07:21:18.740Z,6.27
2023-01-29T07:24:21.637Z,6.07
2023-01-29T07:27:24.906Z,5.85
2023-01-29T07:30:31.416Z,7.13
2023-01-29T07:33:35.452Z,5.50
2023-01-29T07:36:38.277Z,6.40
2023-01-29T07:39:40.979Z,6.17
2023-01-29T07:42:44.312Z,6.28
2023-01-29T07:45:47.143Z,5.78
2023-01-29T07:48:49.983Z,5.68
2023-01-29T07:51:56.656Z,6.07
2023-01-29T07:54:59.815Z,5.90
2023-01-29T07:58:03.661Z,6.20
2023-01-29T08:01:08.090Z,6.63
2023-01-29T08:04:10.841Z,6.32
2023-01-29T08:07:13.776Z,6.03
2023-01-29T08:10:17.601Z,5.20
2023-01-29T08:13:21.644Z,5.85
2023-01-29T08:16:24.544Z,5.07
2023-01-29T08:19:27.609Z,6.30
2023-01-29T08:22:30.513Z,5.73
2023-01-29T08:25:35.097Z,6.03
2023-01-29T08:28:38.992Z,6.20
2023-01-29T08:31:45.656Z,6.20
2023-01-29T08:34:48.972Z,5.22
2023-01-29T08:37:56.475Z,6.30
2023-01-29T08:40:59.388Z,5.40
2023-01-29T08:44:04.491Z,5.45
2023-01-29T08:47:09.988Z,5.13
2023-01-29T08:50:12.926Z,5.30
2023-01-29T08:53:16.146Z,5.40
2023-01-29T08:56:19.133Z,5.27
2023-01-29T08:59:23.046Z,5.60
2023-01-29T09:02:25.915Z,5.70
2023-01-29T09:05:29.494Z,5.50
2023-01-29T09:08:32.515Z,5.80
2023-01-29T09:11:35.465Z,5.57
2023-01-29T09:14:38.285Z,5.82
2023-01-29T09:17:41.417Z,5.28
2023-01-29T09:20:44.315Z,5.60
2023-01-29T09:23:47.285Z,5.60
2023-01-29T09:26:56.216Z,5.60
2023-01-29T09:29:59.771Z,5.55
2023-01-29T09:33:08.318Z,5.35
2023-01-29T09:36:11.144Z,5.45
2023-01-29T09:39:14.391Z,5.33
2023-01-29T09:42:24.451Z,5.20
2023-01-29T09:45:29.619Z,5.10
2023-01-29T09:48:35.865Z,5.13
2023-01-29T09:51:46.821Z,5.28
2023-01-29T09:55:07.041Z,5.07
2023-01-29T09:58:28.373Z,4.90
2023-01-29T10:01:33.922Z,5.28
2023-01-29T10:04:39.700Z,4.82
2023-01-29T10:08:21.123Z,4.85
2023-01-29T10:11:47.211Z,5.37
2023-01-29T10:15:09.227Z,5.70
2023-01-29T10:18:24.082Z,4.68
2023-01-29T10:21:39.217Z,4.93
2023-01-29T10:24:55.537Z,5.40
2023-01-29T10:27:59.799Z,4.90
2023-01-29T10:31:12.755Z,4.73
2023-01-29T10:34:33.536Z,4.85
2023-01-29T10:37:43.588Z,5.25
2023-01-29T10:41:11.823Z,4.93
2023-01-29T10:44:36.357Z,4.77
2023-01-29T10:48:06.258Z,4.70
2023-01-29T10:51:32.340Z,4.45
2023-01-29T10:54:59.846Z,4.57
2023-01-29T10:58:23.894Z,4.68
2023-01-29T11:01:27.645Z,4.30
2023-01-29T11:04:32.486Z,4.80
2023-01-29T11:07:38.149Z,4.75
2023-01-29T11:11:09.749Z,4.93
2023-01-29T11:14:16.843Z,4.75
2023-01-29T11:17:22.199Z,4.70
2023-01-29T11:20:29.832Z,4.67
2023-01-29T11:23:34.290Z,4.15
2023-01-29T11:26:41.064Z,4.70
2023-01-29T11:29:48.358Z,4.30
2023-01-29T11:33:08.216Z,4.57
2023-01-29T11:36:47.083Z,4.30
2023-01-29T11:39:50.772Z,5.20
2023-01-29T11:42:53.902Z,4.55
2023-01-29T11:46:11.920Z,4.65
2023-01-29T11:49:31.856Z,4.70
2023-01-29T11:52:38.838Z,4.07
2023-01-29T11:55:50.895Z,4.50
2023-01-29T11:58:56.436Z,4.53
2023-01-29T12:02:20.173Z,4.20
2023-01-29T12:05:25.874Z,4.37
2023-01-29T12:08:36.369Z,4.47
2023-01-29T12:11:39.642Z,4.47
2023-01-29T12:14:44.785Z,4.50
2023-01-29T12:17:56.684Z,4.80
2023-01-29T12:21:05.284Z,3.57
2023-01-29T12:24:24.947Z,4.40
2023-01-29T12:27:49.930Z,4.50
2023-01-29T12:31:15.271Z,4.65
2023-01-29T12:34:44.662Z,4.93
2023-01-29T12:38:14.909Z,4.00
2023-01-29T12:41:41.401Z,4.20
2023-01-29T12:44:57.169Z,4.40
2023-01-29T12:48:06.568Z,4.20
2023-01-29T12:51:22.625Z,3.63
2023-01-29T12:54:41.291Z,3.90
2023-01-29T12:57:47.339Z,3.80
2023-01-29T13:00:55.390Z,4.60
2023-01-29T13:04:04.459Z,4.03
2023-01-29T13:07:33.341Z,4.60
2023-01-29T13:10:41.604Z,4.47
2023-01-29T13:14:00.171Z,4.50
2023-01-29T13:17:22.143Z,3.72
2023-01-29T13:20:32.965Z,4.15
2023-01-29T13:23:40.219Z,3.85
2023-01-29T13:26:48.186Z,4.40
2023-01-29T13:29:52.077Z,3.87
2023-01-29T13:33:10.130Z,4.18
2023-01-29T13:36:19.629Z,4.18
2023-01-29T13:39:35.506Z,4.35
2023-01-29T13:42:42.417Z,4.60
2023-01-29T13:45:46.093Z,4.30
2023-01-29T13:48:52.783Z,4.40
2023-01-29T13:51:57.572Z,4.15
2023-01-29T13:55:21.611Z,3.60
2023-01-29T13:58:33.950Z,4.30
2023-01-29T14:01:48.887Z,4.40
2023-01-29T14:04:52.874Z,3.80
2023-01-29T14:07:59.390Z,4.38
2023-01-29T14:11:17.955Z,4.03
2023-01-29T14:14:49.118Z,4.23
2023-01-29T14:18:20.558Z,4.73
2023-01-29T14:21:29.925Z,4.10
2023-01-29T14:24:34.546Z,4.22
2023-01-29T14:27:37.849Z,4.28
2023-01-29T14:30:50.273Z,4.47
2023-01-29T14:33:54.517Z,4.30
2023-01-29T14:37:16.129Z,4.40
2023-01-29T14:40:19.199Z,4.00
2023-01-29T14:43:23.007Z,4.63
2023-01-29T14:46:35.197Z,4.60
2023-01-29T14:50:16.963Z,4.37
2023-01-29T14:53:54.729Z,4.13
2023-01-29T14:57:06.665Z,4.38
2023-01-29T15:00:28.439Z,4.50
2023-01-29T15:04:02.728Z,3.97
2023-01-29T15:07:12.348Z,3.77
2023-01-29T15:10:45.969Z,3.78
2023-01-29T15:14:25.104Z,4.03
2023-01-29T15:17:38.315Z,3.47
2023-01-29T15:20:44.602Z,4.33
2023-01-29T15:23:48.930Z,3.70
2023-01-29T15:26:56.945Z,4.30
2023-01-29T15:30:03.439Z,3.95
2023-01-29T15:33:10.888Z,3.92
2023-01-29T15:36:28.208Z,3.77
2023-01-29T15:39:32.026Z,3.60
2023-01-29T15:42:48.950Z,4.20
2023-01-29T15:46:03.359Z,3.58
2023-01-29T15:49:10.466Z,3.97
2023-01-29T15:52:19.503Z,3.27
2023-01-29T15:55:23.984Z,4.30
2023-01-29T15:58:32.206Z,4.00
2023-01-29T16:01:35.888Z,4.38
2023-01-29T16:04:39.355Z,4.32
2023-01-29T16:07:43.858Z,4.30
2023-01-29T16:10:53.235Z,4.00
2023-01-29T16:13:57.932Z,4.45
2023-01-29T16:17:36.383Z,3.90
2023-01-29T16:20:45.671Z,3.55
2023-01-29T16:23:52.391Z,4.13
2023-01-29T16:27:02.703Z,4.07
2023-01-29T16:30:08.081Z,4.13
2023-01-29T16:33:42.906Z,3.67
2023-01-29T16:36:49.531Z,3.83
2023-01-29T16:39:55.606Z,4.13
2023-01-29T16:43:19.729Z,3.77
2023-01-29T16:46:27.401Z,4.30
2023-01-29T16:49:34.397Z,4.00
2023-01-29T16:52:38.832Z,4.10
2023-01-29T16:55:49.869Z,4.43
2023-01-29T16:58:58.366Z,4.03
2023-01-29T17:02:26.330Z,4.50
2023-01-29T17:05:34.285Z,4.03
2023-01-29T17:08:42.326Z,4.30
2023-01-29T17:11:46.865Z,4.10
2023-01-29T17:14:59.847Z,3.83
2023-01-29T17:18:06.465Z,4.03
2023-01-29T17:21:11.267Z,4.03
2023-01-29T17:24:16.913Z,4.38
2023-01-29T17:27:25.388Z,4.10
2023-01-29T17:30:35.550Z,4.13
2023-01-29T17:33:45.553Z,4.22
2023-01-29T17:36:49.825Z,4.07
2023-01-29T17:39:55.957Z,4.20
2023-01-29T17:43:00.567Z,3.57
2023-01-29T17:46:06.657Z,4.60
2023-01-29T17:49:20.286Z,4.25
2023-01-29T17:52:24.564Z,4.15
2023-01-29T17:55:28.926Z,3.78
2023-01-29T17:58:33.357Z,4.10
2023-01-29T18:01:38.365Z,4.07
2023-01-29T18:04:43.063Z,4.05
2023-01-29T18:07:48.771Z,4.30
2023-01-29T18:10:52.764Z,3.80
2023-01-29T18:14:14.198Z,3.50
2023-01-29T18:17:22.992Z,4.23
2023-01-29T18:20:29.332Z,4.15
2023-01-29T18:23:33.284Z,3.65
2023-01-29T18:26:38.283Z,3.80
2023-01-29T18:29:42.387Z,3.80
2023-01-29T18:32:48.143Z,3.90
2023-01-29T18:35:53.383Z,3.88
2023-01-29T18:38:58.110Z,3.88
2023-01-29T18:42:02.682Z,4.00
2023-01-29T18:45:08.564Z,4.03
2023-01-29T18:48:13.147Z,4.10
2023-01-29T18:51:17.442Z,4.03
2023-01-29T18:54:22.733Z,4.00
2023-01-29T18:58:24.727Z,3.90
2023-01-29T19:00:51.091Z,3.87
2023-01-29T19:03:56.783Z,4.60
2023-01-29T19:07:01.012Z,3.60
2023-01-29T19:10:13.395Z,4.20
2023-01-29T19:13:17.704Z,4.40
2023-01-29T19:16:24.157Z,4.27
2023-01-29T19:19:30.459Z,3.73
2023-01-29T19:22:35.391Z,3.90
2023-01-29T19:25:40.454Z,4.38
2023-01-29T19:28:44.803Z,4.50
2023-01-29T19:31:50.600Z,4.43
2023-01-29T19:34:54.366Z,4.23
2023-01-29T19:37:58.174Z,4.35
2023-01-29T19:41:02.587Z,3.70
2023-01-29T19:44:06.955Z,4.25
2023-01-29T19:47:11.142Z,3.77
2023-01-29T19:50:15.146Z,3.90
2023-01-29T19:53:19.556Z,4.13
2023-01-29T19:56:24.075Z,4.35
2023-01-29T19:59:28.414Z,3.78
2023-01-29T20:02:34.848Z,4.20
2023-01-29T20:05:39.202Z,3.53
2023-01-29T20:09:03.127Z,4.40
2023-01-29T20:12:07.232Z,3.67
2023-01-29T20:15:15.144Z,4.10
2023-01-29T20:18:20.197Z,4.17
2023-01-29T20:21:25.512Z,3.77
2023-01-29T20:24:30.910Z,4.25
2023-01-29T20:27:36.031Z,4.30
2023-01-29T20:30:43.822Z,4.20
2023-01-29T20:33:48.729Z,4.10
2023-01-29T20:36:53.285Z,4.40
2023-01-29T20:39:58.306Z,4.80
2023-01-29T20:43:02.068Z,4.53
2023-01-29T20:46:05.894Z,4.43
2023-01-29T20:49:10.421Z,4.50
2023-01-29T20:52:14.462Z,4.50
2023-01-29T20:55:19.477Z,4.05
2023-01-29T20:58:24.039Z,4.43
2023-01-29T21:01:28.872Z,4.80
2023-01-29T21:04:34.080Z,4.30
2023-01-29T21:07:38.357Z,4.67
2023-01-29T21:10:44.027Z,4.18
2023-01-29T21:13:48.024Z,4.53
2023-01-29T21:16:52.080Z,4.15
2023-01-29T21:19:56.596Z,4.70
2023-01-29T21:23:01.415Z,4.80
2023-01-29T21:26:07.993Z,5.00
2023-01-29T21:29:14.221Z,5.75
2023-01-29T21:32:19.447Z,6.03
2023-01-29T21:35:22.622Z,5.23
2023-01-29T21:38:26.135Z,5.80
2023-01-29T21:41:49.404Z,6.38
2023-01-29T21:44:52.435Z,5.82
2023-01-29T21:47:55.635Z,6.63
2023-01-29T21:50:59.199Z,6.40
2023-01-29T21:54:03.660Z,5.93
2023-01-29T21:57:14.479Z,6.25
2023-01-29T22:00:36.826Z,6.65
2023-01-29T22:03:39.697Z,6.43
2023-01-29T22:06:42.629Z,7.00
2023-01-29T22:09:45.344Z,6.77
2023-01-29T22:12:48.457Z,7.00
2023-01-29T22:15:55.296Z,6.10
2023-01-29T22:18:58.904Z,6.47
2023-01-29T22:22:01.743Z,6.17
2023-01-29T22:25:05.331Z,6.63
2023-01-29T22:28:08.187Z,6.45
2023-01-29T22:31:11.579Z,5.82
2023-01-29T22:34:14.900Z,6.30
2023-01-29T22:37:17.645Z,6.33
2023-01-29T22:40:20.781Z,6.57
2023-01-29T22:43:26.138Z,5.90
2023-01-29T22:46:29.082Z,6.10
2023-01-29T22:49:32.299Z,6.60
2023-01-29T22:52:42.860Z,6.67
2023-01-29T22:55:54.917Z,6.33
2023-01-29T22:58:59.655Z,6.20
2023-01-29T23:02:02.483Z,6.82
2023-01-29T23:05:05.802Z,6.55
2023-01-29T23:08:08.577Z,5.83
2023-01-29T23:11:14.828Z,5.73
2023-01-29T23:14:20.059Z,6.15
2023-01-29T23:17:23.075Z,6.00
2023-01-29T23:20:25.809Z,6.00
2023-01-29T23:23:29.597Z,5.53
2023-01-29T23:26:50.678Z,6.60
2023-01-29T23:29:53.528Z,6.10
2023-01-29T23:32:56.281Z,6.30
2023-01-29T23:35:59.101Z,5.57
2023-01-29T23:39:01.916Z,6.20
2023-01-29T23:42:04.961Z,6.80
2023-01-29T23:45:08.175Z,5.80
2023-01-29T23:48:10.993Z,5.55
2023-01-29T23:51:13.829Z,5.75
2023-01-29T23:54:17.802Z,5.73
2023-01-29T23:57:21.227Z,6.30
